Time;durP1;ratioP1;P1;durP2;ratioP2;P2;SDS_P1;SDS_P2;PMS_P1;PMS_P2;Temp;Humidity;BMP_temperature;BMP_pressure;BME280_temperature;BME280_humidity;BME280_pressure;Samples;Min_cycle;Max_cycle;Signal;HPM_P1;HPM_P2
2022/08/25 00:02:15;;;;;;;26.42;4.15;;;;;;;23.45;37.03;100487.47;4992572;28;20108;-66
2022/08/25 00:04:43;;;;;;;16.00;4.07;;;;;;;23.42;37.17;100479.75;4992582;28;20042;-68
2022/08/25 00:07:19;;;;;;;18.55;4.45;;;;;;;23.39;37.23;100481.38;4995741;28;20054;-68
2022/08/25 00:09:46;;;;;;;12.85;4.15;;;;;;;23.36;37.38;100474.44;4996337;28;20057;-68
2022/08/25 00:12:13;;;;;;;10.85;3.83;;;;;;;23.38;37.38;100477.72;4996275;28;20050;-68
2022/08/25 00:14:41;;;;;;;9.10;4.00;;;;;;;23.33;37.43;100475.22;4995936;28;20553;-68
2022/08/25 00:17:08;;;;;;;9.70;4.18;;;;;;;23.32;37.54;100479.28;4994739;28;20422;-68
2022/08/25 00:19:37;;;;;;;8.43;4.15;;;;;;;23.27;37.79;100476.81;4994288;28;20057;-68
2022/08/25 00:22:05;;;;;;;6.82;3.83;;;;;;;23.21;37.75;100478.38;4995852;28;20425;-69
2022/08/25 00:24:32;;;;;;;9.50;4.07;;;;;;;23.19;38.04;100483.63;4995498;28;20417;-69
2022/08/25 00:27:00;;;;;;;11.50;4.35;;;;;;;23.14;38.15;100474.66;4995702;28;20481;-68
2022/08/25 00:29:28;;;;;;;63.47;23.65;;;;;;;23.14;38.32;100483.19;4995749;28;20417;-68
2022/08/25 00:31:56;;;;;;;16.05;7.50;;;;;;;23.10;38.45;100476.66;4995364;28;20088;-69
2022/08/25 00:34:33;;;;;;;8.65;4.40;;;;;;;23.09;38.25;100473.00;4995632;28;20069;-69
2022/08/25 00:37:01;;;;;;;18.02;4.47;;;;;;;23.05;38.41;100475.00;4995553;28;20062;-68
2022/08/25 00:39:29;;;;;;;13.35;5.95;;;;;;;23.01;38.46;100473.34;4995579;28;20064;-68
2022/08/25 00:41:57;;;;;;;9.75;3.78;;;;;;;22.98;38.58;100477.78;4993938;28;20054;-70
2022/08/25 00:44:26;;;;;;;10.50;3.72;;;;;;;22.97;38.49;100479.00;4995402;28;20042;-68
2022/08/25 00:46:57;;;;;;;11.73;5.45;;;;;;;22.98;38.59;100480.59;4995851;28;20141;-69
2022/08/25 00:49:40;;;;;;;6.85;3.97;;;;;;;22.96;38.62;100470.88;4995341;28;20417;-68
2022/08/25 00:52:21;;;;;;;9.50;3.65;;;;;;;22.93;38.76;100477.34;4995251;28;20046;-68
2022/08/25 00:55:13;;;;;;;12.65;3.90;;;;;;;22.92;38.69;100478.56;4995021;28;20417;-68
2022/08/25 00:57:49;;;;;;;8.18;4.70;;;;;;;22.89;38.58;100474.47;4987167;28;20526;-68
2022/08/25 01:00:21;;;;;;;7.13;4.00;;;;;;;22.90;38.80;100470.44;4995092;28;20557;-68
2022/08/25 01:02:49;;;;;;;9.07;3.72;;;;;;;22.88;38.72;100487.03;4994901;28;20058;-68
2022/08/25 01:05:18;;;;;;;9.70;4.03;;;;;;;22.87;38.77;100478.91;4994116;28;20493;-68
2022/08/25 01:07:45;;;;;;;17.52;3.90;;;;;;;22.83;38.79;100469.56;4995105;28;20066;-68
2022/08/25 01:10:12;;;;;;;9.85;4.00;;;;;;;22.83;38.84;100470.34;4995044;28;20137;-68
2022/08/25 01:12:40;;;;;;;10.25;4.45;;;;;;;22.82;38.80;100471.56;4994579;28;20058;-69
2022/08/25 01:15:09;;;;;;;8.23;4.10;;;;;;;22.79;38.87;100465.84;4994843;28;20497;-69
2022/08/25 01:17:50;;;;;;;;;;;;;;;22.66;38.84;100475.88;4994639;28;20062;-68
2022/08/25 01:20:20;;;;;;;9.88;4.07;;;;;;;22.70;38.95;100474.69;4994786;28;19926;-68
2022/08/25 01:22:48;;;;;;;11.82;4.22;;;;;;;22.69;39.07;100461.75;4993449;28;20054;-68
2022/08/25 01:25:50;;;;;;;13.02;3.85;;;;;;;22.73;38.88;100465.41;4994746;28;20138;-69
2022/08/25 01:28:19;;;;;;;9.68;4.55;;;;;;;22.73;38.87;100473.91;4994540;28;20054;-69
2022/08/25 01:30:46;;;;;;;10.57;4.22;;;;;;;22.71;38.96;100464.19;4993439;28;20046;-69
2022/08/25 01:33:15;;;;;;;7.00;4.13;;;;;;;22.70;38.89;100460.53;4994222;28;20046;-68
2022/08/25 01:35:42;;;;;;;12.70;4.30;;;;;;;22.68;39.24;100462.91;4980768;28;20051;-68
2022/08/25 01:38:11;;;;;;;11.10;4.10;;;;;;;22.70;39.18;100463.34;4975266;28;20113;-69
2022/08/25 01:40:39;;;;;;;10.65;4.55;;;;;;;22.69;39.09;100463.75;4974974;28;20049;-68
2022/08/25 01:43:06;;;;;;;9.10;4.55;;;;;;;22.70;39.33;100471.88;4974713;28;20060;-69
2022/08/25 01:45:34;;;;;;;8.85;4.05;;;;;;;22.68;39.46;100465.75;4979688;28;20045;-69
2022/08/25 01:48:01;;;;;;;7.43;3.83;;;;;;;22.67;39.55;100463.31;4994047;28;20145;-68
2022/08/25 01:50:28;;;;;;;13.02;4.05;;;;;;;22.66;39.53;100473.88;4994220;28;20141;-68
2022/08/25 01:53:06;;;;;;;16.23;4.28;;;;;;;22.69;39.48;100466.59;4992922;28;20046;-69
2022/08/25 01:55:50;;;;;;;8.98;4.20;;;;;;;22.66;39.68;100479.53;4993898;28;20056;-69
2022/08/25 01:58:20;;;;;;;5.80;3.78;;;;;;;22.62;39.58;100467.31;4992933;28;20137;-69
2022/08/25 02:00:49;;;;;;;9.35;4.10;;;;;;;22.59;39.73;100479.44;4993936;28;20056;-69
2022/08/25 02:03:19;;;;;;;7.47;4.18;;;;;;;22.56;39.67;100471.72;4993984;28;20498;-68
2022/08/25 02:05:46;;;;;;;10.60;4.65;;;;;;;22.55;39.84;100470.09;4994135;28;20046;-69
2022/08/25 02:08:14;;;;;;;11.18;4.40;;;;;;;22.55;39.64;100470.09;4993805;28;20105;-68
2022/08/25 02:10:41;;;;;;;7.13;4.60;;;;;;;22.55;39.87;100484.28;4992563;28;20546;-68
2022/08/25 02:13:09;;;;;;;10.73;4.50;;;;;;;22.55;39.97;100478.63;4993593;28;20046;-68
2022/08/25 02:15:43;;;;;;;13.20;4.45;;;;;;;22.54;40.03;100482.66;4993702;28;20046;-69
2022/08/25 02:18:11;;;;;;;13.60;4.75;;;;;;;22.49;40.25;100477.31;4993488;28;20061;-67
2022/08/25 02:20:38;;;;;;;10.52;4.72;;;;;;;22.47;40.33;100476.06;4993691;28;20047;-68
2022/08/25 02:23:05;;;;;;;15.75;4.15;;;;;;;22.45;40.42;100482.13;4993723;28;20104;-68
2022/08/25 02:25:33;;;;;;;12.40;4.50;;;;;;;22.43;40.68;100480.88;4993388;28;20046;-68
2022/08/25 02:27:59;;;;;;;14.10;3.80;;;;;;;22.40;40.62;100482.47;4992694;28;20061;-68
2022/08/25 02:30:27;;;;;;;14.30;4.25;;;;;;;22.37;40.78;100483.25;4993439;28;20462;-67
2022/08/25 02:32:54;;;;;;;8.10;4.18;;;;;;;22.35;40.97;100480.00;4993367;28;20403;-68
2022/08/25 02:35:21;;;;;;;6.45;4.03;;;;;;;22.32;41.03;100479.97;4993217;28;20050;-68
2022/08/25 02:37:50;;;;;;;10.88;4.15;;;;;;;22.32;41.21;100480.75;4993344;28;20054;-68
2022/08/25 02:40:22;;;;;;;12.80;4.47;;;;;;;22.30;41.07;100482.38;4993381;28;20418;-68
2022/08/25 02:42:50;;;;;;;10.10;4.55;;;;;;;22.29;41.22;100478.72;4993140;28;20054;-68
2022/08/25 02:45:17;;;;;;;9.25;4.30;;;;;;;22.29;41.40;100470.19;4992955;28;20046;-69
2022/08/25 02:47:45;;;;;;;6.82;4.10;;;;;;;22.27;41.48;100475.47;4993374;28;20056;-70
2022/08/25 02:50:12;;;;;;;11.43;4.72;;;;;;;22.28;41.39;100474.25;4993597;28;20101;-70
2022/08/25 02:52:40;;;;;;;8.65;4.55;;;;;;;22.29;41.45;100478.72;4993301;28;20054;-69
2022/08/25 02:55:11;;;;;;;12.60;4.63;;;;;;;22.30;41.53;100471.84;4993298;28;20050;-70
2022/08/25 02:57:38;;;;;;;10.15;4.90;;;;;;;22.30;41.66;100468.19;4992861;28;20050;-70
2022/08/25 03:00:06;;;;;;;7.95;4.28;;;;;;;22.34;41.55;100472.69;4993182;28;20065;-70
2022/08/25 03:02:33;;;;;;;10.95;4.15;;;;;;;22.35;41.49;100473.53;4993032;28;20450;-69
2022/08/25 03:05:00;;;;;;;12.75;4.43;;;;;;;22.37;41.69;100477.59;4991842;28;20510;-70
2022/08/25 03:07:29;;;;;;;14.63;4.80;;;;;;;22.37;41.71;100476.75;4993154;28;20065;-71
2022/08/25 03:10:10;;;;;;;14.73;4.78;;;;;;;22.43;41.53;100470.34;4993145;28;20482;-70
2022/08/25 03:12:40;;;;;;;8.90;4.50;;;;;;;22.45;41.82;100469.97;4993451;28;20050;-70
2022/08/25 03:15:12;;;;;;;6.40;3.80;;;;;;;22.49;41.84;100474.47;4993051;28;20437;-70
2022/08/25 03:17:39;;;;;;;8.65;4.93;;;;;;;22.51;41.90;100472.09;4992876;28;20116;-71
2022/08/25 03:20:11;;;;;;;12.57;6.10;;;;;;;22.54;42.12;100477.00;4993446;28;20088;-70
2022/08/25 03:22:38;;;;;;;8.57;4.35;;;;;;;22.57;42.18;100481.06;4992744;28;20085;-70
2022/08/25 03:27:51;;;;;;;7.53;4.43;;;;;;;22.62;42.32;100475.84;4991570;28;20466;-70
2022/08/25 03:30:18;;;;;;;12.20;5.10;;;;;;;22.65;42.45;100474.25;4992998;28;20497;-70
2022/08/25 03:32:46;;;;;;;11.20;4.82;;;;;;;22.65;42.63;100466.53;4992561;28;20054;-70
2022/08/25 03:35:13;;;;;;;13.68;4.97;;;;;;;22.68;42.64;100474.28;4992623;28;20434;-70
2022/08/25 03:37:40;;;;;;;11.25;5.38;;;;;;;22.72;42.71;100465.81;4992874;28;20133;-70
2022/08/25 03:40:10;;;;;;;9.50;4.70;;;;;;;22.77;42.79;100463.41;4994417;28;20046;-70
2022/08/25 03:42:45;;;;;;;11.73;5.10;;;;;;;22.79;42.88;100463.00;4996594;28;20168;-70
2022/08/25 03:45:15;;;;;;;9.05;4.82;;;;;;;22.82;43.11;100460.22;4996589;28;20395;-70
2022/08/25 03:47:45;;;;;;;12.07;5.05;;;;;;;22.87;43.24;100462.69;4996350;28;20061;-70
2022/08/25 03:50:13;;;;;;;9.23;5.13;;;;;;;22.92;43.54;100459.47;4996778;28;20141;-70
2022/08/25 03:52:40;;;;;;;12.02;5.57;;;;;;;23.01;43.38;100454.28;4996226;28;20050;-76
2022/08/25 03:55:10;;;;;;;8.70;4.75;;;;;;;23.09;43.40;100452.31;4995555;28;20051;-75
2022/08/25 03:57:37;;;;;;;12.75;5.53;;;;;;;23.14;43.56;100454.78;4994971;28;20050;-67
2022/08/25 04:00:07;;;;;;;10.07;4.93;;;;;;;23.20;43.65;100458.88;4996264;28;20080;-68
2022/08/25 04:02:34;;;;;;;13.38;4.68;;;;;;;23.22;43.82;100457.28;4996459;28;20060;-69
2022/08/25 04:05:03;;;;;;;9.32;5.25;;;;;;;23.27;43.83;100448.41;4996241;28;20246;-68
2022/08/25 04:07:32;;;;;;;10.65;5.00;;;;;;;23.34;44.21;100453.34;4996803;28;20088;-68
2022/08/25 04:09:59;;;;;;;9.07;4.35;;;;;;;23.37;44.04;100446.88;4996234;28;20049;-67
2022/08/25 04:12:28;;;;;;;12.20;4.88;;;;;;;23.48;44.04;100452.59;4996119;28;20437;-67
2022/08/25 04:15:00;;;;;;;10.07;5.05;;;;;;;23.55;44.06;100452.63;4996114;28;20046;-65
2022/08/25 04:17:28;;;;;;;10.98;5.07;;;;;;;23.56;44.12;100442.91;4996080;28;20081;-67
2022/08/25 04:20:00;;;;;;;13.85;5.65;;;;;;;23.61;44.42;100446.19;4995969;28;20457;-67
2022/08/25 04:22:29;;;;;;;13.23;5.20;;;;;;;23.65;44.19;100443.38;4995872;28;20501;-66
2022/08/25 04:24:59;;;;;;;9.43;5.43;;;;;;;23.67;44.42;100438.91;4995766;28;20472;-68
2022/08/25 04:27:26;;;;;;;15.70;5.88;;;;;;;23.70;44.56;100431.59;4995955;28;20054;-70
2022/08/25 04:29:53;;;;;;;11.02;6.13;;;;;;;23.78;44.77;100438.94;4995747;28;20054;-70
2022/08/25 04:32:21;;;;;;;11.77;5.32;;;;;;;23.86;44.67;100432.09;4995641;28;20410;-69
2022/08/25 04:34:50;;;;;;;16.83;6.05;;;;;;;23.93;44.89;100432.09;4988840;28;20050;-76
2022/08/25 04:37:19;;;;;;;21.63;6.75;;;;;;;24.01;44.85;100436.66;4976216;28;20066;-76
2022/08/25 04:39:46;;;;;;;8.70;5.38;;;;;;;24.09;44.58;100435.44;4976365;28;20051;-77
2022/08/25 04:42:13;;;;;;;11.65;5.63;;;;;;;24.18;44.43;100430.16;4976092;28;20552;-76
2022/08/25 04:44:42;;;;;;;19.08;5.65;;;;;;;24.26;44.55;100431.81;4976014;28;20454;-76
2022/08/25 04:47:09;;;;;;;16.13;6.25;;;;;;;24.34;44.05;100439.16;4974774;28;20085;-76
2022/08/25 04:49:39;;;;;;;12.85;6.15;;;;;;;24.42;43.63;100430.22;4976042;28;20051;-75
2022/08/25 04:52:06;;;;;;;13.35;6.15;;;;;;;24.50;43.58;100431.03;4975197;28;20055;-76
2022/08/25 04:54:43;;;;;;;14.10;7.10;;;;;;;24.61;43.81;100438.41;4975618;28;20057;-76
2022/08/25 04:57:10;;;;;;;14.32;6.80;;;;;;;24.74;43.02;100441.66;4975344;28;20046;-76
2022/08/25 04:59:39;;;;;;;23.10;7.82;;;;;;;24.87;42.82;100425.81;4976958;28;20130;-76
2022/08/25 05:02:06;;;;;;;11.35;7.45;;;;;;;24.97;41.99;100433.53;4994808;28;20046;-68
2022/08/25 05:04:35;;;;;;;11.75;6.45;;;;;;;25.14;41.70;100433.50;4995143;28;20069;-68
2022/08/25 05:07:03;;;;;;;;;;;;;;;25.16;41.13;100430.25;4995436;28;20047;-69
2022/08/25 05:09:30;;;;;;;16.85;8.40;;;;;;;25.38;39.89;100439.59;4995018;28;20008;-70
2022/08/25 05:12:00;;;;;;;13.80;7.72;;;;;;;25.56;38.40;100428.97;4995223;28;20046;-69
2022/08/25 05:14:29;;;;;;;13.23;7.07;;;;;;;25.73;37.02;100426.06;4994799;28;20137;-68
2022/08/25 05:16:56;;;;;;;12.80;6.90;;;;;;;25.88;36.03;100429.66;4994675;28;20419;-70
2022/08/25 05:19:25;;;;;;;9.80;6.03;;;;;;;26.00;35.54;100424.34;4994527;28;20121;-69
2022/08/25 05:21:52;;;;;;;12.40;6.70;;;;;;;26.08;35.66;100423.06;4994382;28;20141;-71
2022/08/25 05:24:21;;;;;;;14.32;6.25;;;;;;;26.20;35.18;100427.50;4994566;28;20050;-68
2022/08/25 05:26:48;;;;;;;11.57;6.72;;;;;;;26.28;35.18;100427.03;4994653;28;20061;-69
2022/08/25 05:29:15;;;;;;;15.63;6.85;;;;;;;26.34;34.90;100416.78;4994482;28;20096;-69
2022/08/25 05:31:43;;;;;;;19.35;5.97;;;;;;;26.42;34.17;100418.38;4994463;28;20050;-68
2022/08/25 05:34:17;;;;;;;13.95;6.00;;;;;;;26.49;33.57;100418.31;4994280;28;20046;-68
2022/08/25 05:36:45;;;;;;;18.35;6.00;;;;;;;26.60;33.17;100424.75;4994292;28;20046;-68
2022/08/25 05:39:12;;;;;;;8.93;5.60;;;;;;;26.72;32.93;100420.59;4994580;28;20085;-69
2022/08/25 05:41:39;;;;;;;10.88;5.35;;;;;;;27.02;32.33;100414.25;4994121;28;20050;-68
2022/08/25 05:44:06;;;;;;;10.13;5.80;;;;;;;27.38;31.86;100422.03;4992832;28;20141;-68
2022/08/25 05:46:34;;;;;;;9.57;5.50;;;;;;;28.04;30.83;100414.69;4994201;28;20042;-69
2022/08/25 05:49:01;;;;;;;12.82;5.72;;;;;;;28.38;29.91;100408.91;4994044;28;20502;-68
2022/08/25 05:51:28;;;;;;;11.18;5.82;;;;;;;30.39;27.61;100412.47;4994349;28;20057;-69
2022/08/25 05:53:55;;;;;;;12.38;5.70;;;;;;;31.72;25.89;100406.13;4993876;28;20058;-68
2022/08/25 05:56:22;;;;;;;10.57;5.72;;;;;;;33.59;23.80;100408.66;4994112;28;20050;-68
2022/08/25 05:58:49;;;;;;;8.95;5.43;;;;;;;35.67;21.68;100408.28;4994023;28;20469;-68
2022/08/25 06:04:12;;;;;;;13.98;5.65;;;;;;;34.71;21.74;100410.84;4993846;28;20054;-68
2022/08/25 06:06:39;;;;;;;14.93;5.60;;;;;;;34.08;22.96;100412.56;4993633;28;20050;-68
2022/08/25 06:09:08;;;;;;;9.05;5.43;;;;;;;33.88;22.96;100415.00;4993773;28;20425;-68
2022/08/25 06:11:38;;;;;;;20.63;7.32;;;;;;;34.34;22.38;100409.03;4993899;28;20053;-69
2022/08/25 06:14:11;;;;;;;11.55;4.72;;;;;;;36.29;19.66;100408.75;4993484;28;20046;-68
2022/08/25 06:16:39;;;;;;;10.68;5.03;;;;;;;38.80;17.01;100409.41;4993664;28;20053;-69
2022/08/25 06:19:07;;;;;;;12.00;5.77;;;;;;;41.34;15.14;100407.13;4993317;28;20584;-68
2022/08/25 06:21:40;;;;;;;14.57;5.28;;;;;;;40.45;15.88;100411.53;4992011;28;20634;-69
2022/08/25 06:24:10;;;;;;;11.80;5.28;;;;;;;38.76;16.68;100412.50;4993860;28;20046;-69
2022/08/25 06:26:42;;;;;;;9.75;5.45;;;;;;;36.87;18.62;100408.34;4993592;28;20046;-68
2022/08/25 06:29:12;;;;;;;9.23;5.03;;;;;;;35.43;20.04;100413.13;4993458;28;20054;-68
2022/08/25 06:31:42;;;;;;;8.20;4.70;;;;;;;34.73;20.14;100410.34;4993432;28;20137;-68
2022/08/25 06:34:12;;;;;;;8.30;4.95;;;;;;;34.20;20.72;100405.91;4992895;28;20141;-68
2022/08/25 06:36:39;;;;;;;14.35;4.68;;;;;;;34.31;21.00;100400.50;4993467;28;20051;-68
2022/08/25 06:39:08;;;;;;;8.68;4.80;;;;;;;34.32;20.59;100400.03;4993025;28;20136;-68
2022/08/25 06:41:38;;;;;;;14.05;5.85;;;;;;;34.34;20.54;100408.25;4993575;28;20142;-70
2022/08/25 06:44:05;;;;;;;10.75;5.38;;;;;;;34.76;20.39;100407.34;4993248;28;20046;-69
2022/08/25 06:46:33;;;;;;;8.88;4.70;;;;;;;35.29;20.14;100401.34;4992065;28;20070;-69
2022/08/25 06:49:04;;;;;;;14.63;5.78;;;;;;;35.80;18.88;100406.06;4992920;28;20053;-68
2022/08/25 06:51:31;;;;;;;12.10;5.15;;;;;;;35.27;19.33;100401.84;4994004;28;20050;-69
2022/08/25 06:53:59;;;;;;;9.18;5.53;;;;;;;34.01;20.65;100389.75;4993209;28;20056;-71
2022/08/25 06:56:26;;;;;;;14.67;5.27;;;;;;;33.01;21.60;100397.50;4991817;28;20042;-67
2022/08/25 06:58:53;;;;;;;22.77;5.50;;;;;;;32.34;22.33;100389.44;4992906;28;20285;-69
2022/08/25 07:01:25;;;;;;;22.80;6.78;;;;;;;31.98;22.52;100395.50;4992821;28;20104;-66
2022/08/25 07:03:58;;;;;;;7.97;5.13;;;;;;;31.78;22.80;100400.59;4992809;28;20592;-66
2022/08/25 07:06:27;;;;;;;14.45;4.88;;;;;;;31.62;22.70;100398.56;4992977;28;20404;-66
2022/08/25 07:08:54;;;;;;;8.38;4.75;;;;;;;31.64;22.68;100396.06;4993166;28;20050;-67
2022/08/25 07:11:21;;;;;;;12.70;4.65;;;;;;;31.45;22.97;100388.41;4993352;28;20050;-66
2022/08/25 07:13:49;;;;;;;7.95;4.57;;;;;;;31.43;23.29;100388.03;4991437;28;20069;-67
2022/08/25 07:16:19;;;;;;;10.73;5.13;;;;;;;32.03;22.73;100383.41;4996869;28;20077;-67
2022/08/25 07:18:47;;;;;;;9.23;4.65;;;;;;;32.27;22.09;100396.25;4997100;28;20427;-68
2022/08/25 07:21:14;;;;;;;10.35;5.50;;;;;;;31.87;22.68;100392.13;4996736;28;20050;-66
2022/08/25 07:23:42;;;;;;;10.60;5.13;;;;;;;32.15;22.17;100396.22;4996772;28;20509;-66
2022/08/25 07:26:17;;;;;;;10.77;4.90;;;;;;;34.56;19.33;100388.75;4996774;28;20042;-66
2022/08/25 07:29:27;;;;;;;8.50;4.53;;;;;;;35.74;18.59;100393.50;4996195;28;20086;-66
2022/08/25 07:32:00;;;;;;;7.35;4.95;;;;;;;36.63;17.10;100390.91;4997027;28;20085;-68
2022/08/25 07:37:20;;;;;;;11.10;4.70;;;;;;;37.64;16.61;100386.88;4996263;28;20137;-70
2022/08/25 07:40:13;;;;;;;17.88;4.68;;;;;;;38.27;16.05;100389.16;4996551;28;20097;-70
2022/08/25 07:42:41;;;;;;;9.75;5.15;;;;;;;41.72;13.36;100386.06;4996449;28;20085;-69
2022/08/25 07:45:10;;;;;;;8.50;5.07;;;;;;;45.13;11.12;100394.22;4996505;28;20089;-69
2022/08/25 07:47:37;;;;;;;9.07;5.72;;;;;;;45.97;10.45;100387.53;4996294;28;20046;-70
2022/08/25 07:50:11;;;;;;;7.10;4.88;;;;;;;45.98;10.01;100391.25;4996306;28;20512;-69
2022/08/25 07:52:39;;;;;;;9.02;4.53;;;;;;;47.22;9.54;100384.34;4996208;28;20046;-70
2022/08/25 07:55:07;;;;;;;12.88;4.70;;;;;;;50.11;7.80;100386.75;4995531;28;20524;-69
2022/08/25 07:57:39;;;;;;;14.13;5.00;;;;;;;50.25;7.62;100384.44;4995470;28;20050;-69
2022/08/25 08:00:07;;;;;;;20.50;4.80;;;;;;;51.10;7.17;100381.75;4991309;28;20054;-69
2022/08/25 08:02:37;;;;;;;8.63;4.40;;;;;;;51.50;6.38;100383.47;4992229;28;20073;-69
2022/08/25 08:05:06;;;;;;;15.40;4.93;;;;;;;49.42;7.22;100375.97;4995933;28;20050;-71
2022/08/25 08:07:36;;;;;;;6.88;4.47;;;;;;;49.31;7.94;100379.22;4992107;28;20129;-70
2022/08/25 08:10:12;;;;;;;11.75;4.53;;;;;;;51.36;6.12;100361.34;4996962;28;20141;-70
2022/08/25 08:12:59;;;;;;;8.73;4.68;;;;;;;53.36;5.34;100369.38;4991031;28;20050;-69
2022/08/25 08:15:26;;;;;;;15.65;4.70;;;;;;;54.79;4.92;100373.31;4995306;28;20050;-69
2022/08/25 08:17:58;;;;;;;16.20;5.78;;;;;;;55.98;4.49;100356.66;4995214;28;20181;-70
2022/08/25 08:20:27;;;;;;;9.70;5.20;;;;;;;56.73;3.77;100357.88;4994804;28;20185;-70
2022/08/25 08:22:54;;;;;;;9.43;4.43;;;;;;;57.24;3.12;100357.13;4994040;28;20046;-70
2022/08/25 08:25:21;;;;;;;215.93;153.07;;;;;;;57.58;4.00;100344.56;4994445;28;20422;-69
2022/08/25 08:27:54;;;;;;;10.25;4.88;;;;;;;58.39;3.27;100353.81;4994991;28;20520;-69
2022/08/25 08:30:22;;;;;;;16.50;4.68;;;;;;;58.36;2.71;100349.88;4995277;28;20116;-70
2022/08/25 08:32:53;;;;;;;10.25;4.40;;;;;;;58.39;3.49;100356.81;4994498;28;20468;-69
2022/08/25 08:35:40;;;;;;;12.05;4.50;;;;;;;57.47;2.89;100345.25;4994300;28;20050;-69
2022/08/25 08:38:11;;;;;;;5.97;4.82;;;;;;;57.80;3.40;100342.28;4994042;28;20042;-69
2022/08/25 08:43:59;;;;;;;8.25;4.75;;;;;;;58.56;3.08;100342.22;4991330;28;20081;-69
2022/08/25 08:46:39;;;;;;;11.07;4.85;;;;;;;58.58;2.43;100345.38;4993088;28;20054;-69
2022/08/25 08:49:22;;;;;;;6.53;4.50;;;;;;;58.73;2.75;100343.28;4994244;28;20141;-70
2022/08/25 08:52:00;;;;;;;5.93;4.55;;;;;;;59.54;2.66;100338.72;4994084;28;20129;-71
2022/08/25 08:54:33;;;;;;;9.50;5.07;;;;;;;59.79;2.27;100337.94;4992611;28;20057;-70
2022/08/25 08:57:18;;;;;;;12.85;4.75;;;;;;;59.89;2.24;100332.56;4994604;28;20529;-68
2022/08/25 08:59:53;;;;;;;9.30;4.90;;;;;;;59.82;1.92;100334.44;4994411;28;20045;-69
2022/08/25 09:02:34;;;;;;;12.68;5.03;;;;;;;60.11;1.88;100318.84;4993929;28;20540;-68
2022/08/25 09:05:19;;;;;;;8.82;5.20;;;;;;;60.57;1.52;100329.75;4989768;28;20478;-70
2022/08/25 09:07:49;;;;;;;8.38;4.95;;;;;;;60.53;1.77;100318.28;4994097;28;20042;-67
2022/08/25 09:10:25;;;;;;;6.88;5.13;;;;;;;60.74;2.20;100317.19;4994419;28;20518;-66
2022/08/25 09:13:05;;;;;;;9.73;5.20;;;;;;;61.34;1.55;100318.25;4993517;28;20050;-67
2022/08/25 09:19:21;;;;;;;11.95;5.80;;;;;;;60.22;1.86;100317.22;4991810;28;20526;-76
2022/08/25 09:22:30;;;;;;;11.48;5.28;;;;;;;59.70;1.99;100311.88;4993977;28;20050;-75
2022/08/25 09:25:02;;;;;;;9.85;4.60;;;;;;;58.89;2.59;100308.31;4979594;28;20058;-75
2022/08/25 09:28:12;;;;;;;18.98;12.35;;;;;;;59.71;1.80;100311.22;4978486;28;20053;-76
2022/08/25 09:30:50;;;;;;;10.63;5.00;;;;;;;60.04;2.17;100298.84;4991169;28;20062;-76
2022/08/25 09:33:26;;;;;;;5.95;5.05;;;;;;;60.69;1.71;100298.13;4991490;28;20150;-76
2022/08/25 09:35:55;;;;;;;10.75;5.80;;;;;;;60.79;1.29;100303.91;4994522;28;20051;-76
2022/08/25 09:38:25;;;;;;;14.70;5.18;;;;;;;60.22;1.49;100299.94;4993616;28;20046;-76
2022/08/25 09:40:59;;;;;;;7.25;4.22;;;;;;;56.01;3.33;100296.44;4994565;28;20453;-76
2022/08/25 09:43:27;;;;;;;6.50;3.67;;;;;;;51.52;4.82;100288.69;4994762;28;20042;-76
2022/08/25 09:45:58;;;;;;;4.68;3.63;;;;;;;48.35;5.90;100286.25;4994386;28;20058;-70
2022/08/25 09:48:39;;;;;;;8.40;3.30;;;;;;;45.48;7.16;100280.22;4993683;28;20065;-69
2022/08/25 09:51:27;;;;;;;10.43;4.28;;;;;;;43.43;8.81;100276.81;4993602;28;20050;-69
2022/08/25 09:54:12;;;;;;;5.63;4.22;;;;;;;41.80;9.92;100275.28;4993395;28;20057;-69
2022/08/25 09:57:00;;;;;;;8.88;4.32;;;;;;;40.41;11.41;100270.13;4999768;28;20050;-70
2022/08/25 09:59:33;;;;;;;10.32;4.70;;;;;;;39.83;12.13;100268.59;4992782;28;20046;-70
2022/08/25 10:02:24;;;;;;;7.43;5.05;;;;;;;39.34;12.32;100257.97;4993993;28;20061;-69
2022/08/25 10:04:53;;;;;;;8.38;4.28;;;;;;;38.67;12.99;100255.53;4993580;28;20042;-69
2022/08/25 10:07:27;;;;;;;17.33;5.22;;;;;;;38.07;13.49;100258.28;4992933;28;20059;-69
2022/08/25 10:09:58;;;;;;;12.50;5.45;;;;;;;37.67;13.95;100249.38;4992982;28;20545;-70
2022/08/25 10:12:29;;;;;;;11.68;5.28;;;;;;;37.33;14.24;100247.16;4993095;28;20164;-69
2022/08/25 10:14:56;;;;;;;16.60;6.10;;;;;;;37.00;14.58;100252.25;4987956;28;20506;-70
2022/08/25 10:17:30;;;;;;;7.43;4.95;;;;;;;36.82;14.74;100249.50;4991738;28;20061;-69
2022/08/25 10:20:25;;;;;;;12.63;4.60;;;;;;;36.52;15.32;100243.56;4992864;28;20506;-70
2022/08/25 10:23:12;;;;;;;14.15;5.25;;;;;;;36.26;15.50;100251.09;4993083;28;20514;-69
2022/08/25 10:25:50;;;;;;;15.43;4.57;;;;;;;36.27;15.36;100241.13;4987875;28;20046;-72
2022/08/25 10:28:50;;;;;;;11.00;4.90;;;;;;;36.26;15.44;100244.50;4989000;28;20104;-70
2022/08/25 10:31:36;;;;;;;11.73;5.22;;;;;;;35.98;16.16;100235.13;4989512;28;20054;-69
2022/08/25 10:34:23;;;;;;;7.90;4.55;;;;;;;35.75;16.06;100241.63;4989090;28;20066;-70
2022/08/25 10:37:07;;;;;;;8.23;5.35;;;;;;;35.64;16.35;100235.53;4989526;28;20466;-69
2022/08/25 10:39:37;;;;;;;11.25;5.50;;;;;;;35.55;16.82;100241.34;4990572;28;20074;-70
2022/08/25 10:42:36;;;;;;;8.52;5.45;;;;;;;35.27;16.32;100242.69;4989782;28;20604;-69
2022/08/25 10:48:32;;;;;;;8.23;5.10;;;;;;;34.91;16.66;100223.28;4993221;28;20080;-69
2022/08/25 10:51:30;;;;;;;9.02;5.32;;;;;;;34.89;16.88;100219.25;4985932;28;20058;-69
2022/08/25 10:54:12;;;;;;;11.43;5.50;;;;;;;34.82;16.55;100222.44;4992458;28;20053;-69
2022/08/25 10:57:04;;;;;;;15.70;5.40;;;;;;;34.64;16.70;100219.53;4992329;28;20073;-69
2022/08/25 10:59:45;;;;;;;16.13;5.88;;;;;;;34.33;17.16;100222.50;4977686;28;20059;-69
2022/08/25 11:02:37;;;;;;;16.77;6.13;;;;;;;34.18;17.25;100214.91;4991295;28;20167;-69
2022/08/25 11:05:40;;;;;;;8.13;5.25;;;;;;;34.17;17.13;100213.31;4987990;28;20072;-69
2022/08/25 11:08:24;;;;;;;10.02;5.43;;;;;;;34.28;17.06;100210.78;4987847;28;20522;-70
2022/08/25 11:11:08;;;;;;;6.40;4.68;;;;;;;34.42;17.24;100204.38;4988774;28;20072;-69
2022/08/25 11:13:51;;;;;;;7.70;5.07;;;;;;;34.32;17.10;100202.75;4988485;28;20042;-70
2022/08/25 11:16:38;;;;;;;6.70;4.90;;;;;;;34.26;17.61;100213.31;4989857;28;20504;-71
2022/08/25 11:19:42;;;;;;;9.25;5.30;;;;;;;34.14;17.81;100206.41;4988204;28;20461;-69
2022/08/25 11:22:21;;;;;;;9.75;5.20;;;;;;;33.94;18.11;100200.25;4989345;28;20423;-70
2022/08/25 11:25:15;;;;;;;7.45;5.07;;;;;;;33.73;18.18;100191.63;4987477;28;20073;-69
2022/08/25 11:27:50;;;;;;;11.23;5.65;;;;;;;33.83;18.16;100199.06;4987200;28;20043;-67
2022/08/25 11:30:18;;;;;;;9.82;5.32;;;;;;;33.82;18.28;100185.88;4990253;28;20072;-70
2022/08/25 11:32:53;;;;;;;9.30;5.20;;;;;;;33.87;18.53;100179.50;4987971;28;20046;-67
2022/08/25 11:35:32;;;;;;;12.23;5.15;;;;;;;33.97;18.48;100187.75;4988702;28;20045;-66
2022/08/25 11:38:27;;;;;;;8.75;4.80;;;;;;;34.03;18.56;100185.00;4986986;28;20049;-68
2022/08/25 11:41:25;;;;;;;14.43;5.20;;;;;;;34.26;18.49;100181.53;4992032;28;20051;-76
2022/08/25 11:44:22;;;;;;;12.90;7.15;;;;;;;34.28;18.44;100168.22;4991630;28;20050;-73
2022/08/25 11:47:00;;;;;;;7.70;4.82;;;;;;;34.28;18.10;100184.78;4992319;28;20057;-75
2022/08/25 11:49:36;;;;;;;11.63;5.63;;;;;;;34.11;18.30;100169.00;4992320;28;20043;-74
2022/08/25 11:52:28;;;;;;;10.82;6.75;;;;;;;34.04;18.37;100170.09;4991502;28;20069;-76
2022/08/25 11:55:13;;;;;;;12.18;5.00;;;;;;;33.94;18.53;100161.88;4992714;28;20050;-73
2022/08/25 11:57:42;;;;;;;13.65;6.20;;;;;;;33.72;18.69;100164.03;4987868;28;20044;-73
2022/08/25 12:00:29;;;;;;;;;;;;;;;33.47;18.93;100160.09;4991991;28;20046;-72
2022/08/25 12:02:56;;;;;;;8.82;5.50;;;;;;;33.45;18.91;100150.31;4991824;28;19961;-74
2022/08/25 12:06:09;;;;;;;10.52;5.28;;;;;;;33.45;18.89;100162.63;4995971;28;20050;-73
2022/08/25 12:09:03;;;;;;;11.50;5.30;;;;;;;33.48;18.83;100161.69;4989925;28;20046;-74